Albatros — C6CN4 — position and weather

sailwx.info

Track history (hours):
 
Tides and Currents Weather Stations Pressure Air Temp Water Temp Dewpoint Dewpoint Depression Visibility Wind Speed Wind Dir Waves Ship Positions

Albatros

Last reported at 2019-Mar-18 09:36 UTC. Time now 2019-Mar-22 12:04 UTC.
Position N 35°05' E 129°07'.

Length 205.5 m; beam 25.2 m; draft 7.6 m.

Type: Passenger vessel. MMSI: 308784000.

Date/timePositionNaut miles runAvg speedWind from/ knotsBaromVisibWave heightAir tempDewpointWater temp
2019-Mar-18 09:36N 35°05' E 129°07'112.5
2019-Mar-18 09:30N 35°05' E 129°05'2 4.4
2019-Mar-18 08:59N 35°07' E 129°03'0 0.0
2019-Mar-18 08:29N 35°07' E 129°03'0 0.0
2019-Mar-18 07:59N 35°07' E 129°03'0 0.0
2019-Mar-18 07:30N 35°07' E 129°03'0 0.0
2019-Mar-18 06:59N 35°07' E 129°03'0 0.0
2019-Mar-18 06:30N 35°07' E 129°03'0 0.0
2019-Mar-18 05:59N 35°07' E 129°03'0 0.0
2019-Mar-18 05:30N 35°07' E 129°03'0 0.0
2019-Mar-18 05:00N 35°07' E 129°03'0 0.0
2019-Mar-18 04:26N 35°07' E 129°03'0 0.0
2019-Mar-18 04:00N 35°07' E 129°03'0 0.0
2019-Mar-18 03:30N 35°07' E 129°03'0 0.0
2019-Mar-18 03:00N 35°07' E 129°03'0 0.0
2019-Mar-18 02:27N 35°07' E 129°03'0 0.0
2019-Mar-18 02:00N 35°07' E 129°03'0 0.0
2019-Mar-18 01:30N 35°07' E 129°03'0 0.0
2019-Mar-18 01:00N 35°07' E 129°03'0 0.0
2019-Mar-18 00:27N 35°07' E 129°03'0 0.0
2019-Mar-18 00:00N 35°07' E 129°03'0 0.0
2019-Mar-17 23:30N 35°07' E 129°03'0 0.0
2019-Mar-17 23:00N 35°07' E 129°03'0 0.0
2019-Mar-17 22:30N 35°07' E 129°03'0 0.3
2019-Mar-17 22:00N 35°07' E 129°03'5 8.9
2019-Mar-17 21:26N 35°04' E 129°09'34410.7
2019-Mar-16 13:13N 31°44' E 123°33'1217.2
2019-Mar-16 12:32N 31°37' E 123°22'117.4
2019-Mar-16 12:30N 31°36' E 123°21'3316.0
2019-Mar-16 10:27N 31°14' E 122°53'1616.2
2019-Mar-16 09:27N 31°06' E 122°37'715.4
2019-Mar-16 08:59N 31°06' E 122°28'611.4
2019-Mar-16 08:30N 31°06' E 122°22'713.9
2019-Mar-16 08:00N 31°08' E 122°14'714.5
2019-Mar-16 07:30N 31°13' E 122°08'714.3
2019-Mar-16 07:00N 31°15' E 121°60'814.5
2019-Mar-16 06:27N 31°17' E 121°51'5 0.1
2019-Mar-14 21:00N 31°18' E 121°46'710.8
2019-Mar-14 20:23N 31°16' E 121°53'411.2
2019-Mar-14 20:00N 31°15' E 121°58'812.6
2019-Mar-14 19:21N 31°13' E 122°07'512.9
2019-Mar-14 18:56N 31°10' E 122°12'612.5
2019-Mar-14 18:27N 31°06' E 122°18'1010.2
2019-Mar-14 17:31N 31°07' E 122°29'0 9.3
2019-Mar-14 17:30N 31°07' E 122°29'  
2019-Mar-12 08:53N 25°19' E 122°26'615.8
2019-Mar-12 08:29N 25°18' E 122°19'816.2
2019-Mar-12 07:59N 25°16' E 122°10'916.6
2019-Mar-12 07:27N 25°14' E 122°01'816.1
2019-Mar-12 06:58N 25°13' E 121°52'714.0
2019-Mar-12 06:29N 25°11' E 121°45'3 2.4
2019-Mar-12 05:23N 25°08' E 121°45'0 0.0
2019-Mar-12 04:53N 25°08' E 121°45'0 0.0
2019-Mar-12 04:29N 25°08' E 121°45'0 0.0
2019-Mar-12 03:29N 25°08' E 121°45'0 0.0
2019-Mar-12 02:59N 25°08' E 121°45'0 0.0
2019-Mar-12 02:20N 25°08' E 121°45'0 0.0
2019-Mar-12 01:32N 25°08' E 121°45'0 0.0
2019-Mar-12 01:02N 25°08' E 121°45'0 0.0
2019-Mar-12 00:50N 25°08' E 121°45'0 0.0
2019-Mar-12 00:26N 25°08' E 121°45'0 0.0
2019-Mar-11 23:53N 25°08' E 121°45'0 0.0
2019-Mar-11 23:29N 25°08' E 121°45'0 0.0
2019-Mar-11 22:41N 25°08' E 121°45'0 0.0
2019-Mar-11 22:29N 25°08' E 121°45'0 0.0
2019-Mar-11 21:47N 25°08' E 121°45'0 0.0
2019-Mar-11 21:23N 25°08' E 121°45'0 0.0
2019-Mar-11 20:53N 25°08' E 121°45'0 0.0
2019-Mar-11 20:11N 25°08' E 121°45'0 0.0
2019-Mar-11 19:53N 25°08' E 121°45'0 0.0
2019-Mar-11 19:23N 25°08' E 121°45'0 0.0
2019-Mar-11 18:53N 25°08' E 121°45'0 0.0
2019-Mar-11 18:29N 25°08' E 121°45'0 0.0
2019-Mar-11 17:47N 25°08' E 121°45'0 0.0
2019-Mar-11 17:29N 25°08' E 121°45'0 0.0
2019-Mar-11 16:41N 25°08' E 121°45'0 0.0
2019-Mar-11 16:26N 25°08' E 121°45'0 0.0
2019-Mar-11 15:50N 25°08' E 121°45'0 0.0
2019-Mar-11 15:26N 25°08' E 121°45'0 0.0
2019-Mar-11 14:56N 25°08' E 121°45'0 0.0
2019-Mar-11 14:29N 25°08' E 121°45'0 0.0
2019-Mar-11 13:47N 25°08' E 121°45'0 0.0
2019-Mar-11 13:29N 25°08' E 121°45'0 0.0
2019-Mar-11 12:41N 25°08' E 121°45'0 0.0
2019-Mar-11 12:08N 25°08' E 121°45'0 0.0
2019-Mar-11 11:44N 25°08' E 121°45'0 0.0
2019-Mar-11 11:20N 25°08' E 121°45'0 0.0
2019-Mar-11 10:56N 25°08' E 121°45'0 0.0
2019-Mar-11 10:26N 25°08' E 121°45'0 0.0
2019-Mar-11 09:53N 25°08' E 121°45'0 0.0
2019-Mar-11 09:29N 25°08' E 121°45'0 0.0
2019-Mar-11 08:59N 25°08' E 121°45'0 0.0
2019-Mar-11 08:08N 25°08' E 121°45'0 0.0
2019-Mar-11 07:56N 25°08' E 121°45'0 0.0
2019-Mar-11 07:20N 25°08' E 121°45'0 0.0
2019-Mar-11 06:47N 25°08' E 121°45'0 0.0
2019-Mar-11 06:17N 25°08' E 121°45'0 0.0
2019-Mar-11 05:59N 25°08' E 121°45'0 0.0
2019-Mar-11 05:26N 25°08' E 121°45'0 0.0
2019-Mar-11 04:56N 25°08' E 121°45'0 0.0
2019-Mar-11 04:26N 25°08' E 121°45'0 0.0
2019-Mar-11 03:50N 25°08' E 121°45'0 0.0
2019-Mar-11 03:26N 25°08' E 121°45'0 0.0
2019-Mar-11 02:59N 25°08' E 121°45'0 0.0
2019-Mar-11 01:56N 25°08' E 121°45'0 0.0
2019-Mar-11 01:23N 25°08' E 121°45'0 0.0
2019-Mar-11 00:59N 25°08' E 121°45'0 0.0
2019-Mar-11 00:23N 25°08' E 121°45'0 0.0
2019-Mar-10 23:59N 25°08' E 121°45'0 0.7
2019-Mar-10 23:29N 25°08' E 121°45'3 5.3
2019-Mar-10 22:59N 25°11' E 121°45'5 8.9
2019-Mar-10 22:28N 25°15' E 121°43'510.1
2019-Mar-10 21:58N 25°20' E 121°40'510.0
2019-Mar-10 21:26N 25°24' E 121°37'510.2
2019-Mar-10 20:59N 25°27' E 121°33'1019.3
2019-Mar-10 20:28N 25°30' E 121°23'1019.1
2019-Mar-10 19:55N 25°28' E 121°12'919.4
2019-Mar-10 19:28N 25°23' E 121°03'16016.7
2019-Mar-10 09:54N 22°54' E 120°01'1015.2
2019-Mar-10 09:15N 22°46' E 120°07'414.6
2019-Mar-10 09:01N 22°43' E 120°09'714.3
2019-Mar-10 08:30N 22°38' E 120°14'3 4.8
2019-Mar-10 07:58N 22°37' E 120°17'0 0.0
2019-Mar-10 07:28N 22°37' E 120°17'0 0.0
2019-Mar-10 06:58N 22°37' E 120°17'0 0.0
2019-Mar-10 06:28N 22°37' E 120°17'0 0.0
2019-Mar-10 05:58N 22°37' E 120°17'0 0.0
2019-Mar-10 05:28N 22°37' E 120°17'0 0.0
2019-Mar-10 04:58N 22°37' E 120°17'0 0.0
2019-Mar-10 04:28N 22°37' E 120°17'0 0.0
2019-Mar-10 03:58N 22°37' E 120°17'0 0.0
2019-Mar-10 03:25N 22°37' E 120°17'0 0.0
2019-Mar-10 02:52N 22°37' E 120°17'0 0.0
2019-Mar-10 02:28N 22°37' E 120°17'0 0.0
2019-Mar-10 01:58N 22°37' E 120°17'0 0.0
2019-Mar-10 01:28N 22°37' E 120°17'0 0.0
2019-Mar-10 00:58N 22°37' E 120°17'0 0.0
2019-Mar-10 00:28N 22°37' E 120°17'0 0.0
2019-Mar-09 23:58N 22°37' E 120°17'0 0.0
2019-Mar-09 23:22N 22°37' E 120°17'0 0.0
2019-Mar-09 23:00N 22°37' E 120°17'1 1.5
2019-Mar-09 22:30N 22°37' E 120°16'4 8.0
2019-Mar-09 22:00N 22°37' E 120°12'611.8
2019-Mar-09 21:30N 22°31' E 120°13'611.7
2019-Mar-09 21:00N 22°25' E 120°12'612.0
2019-Mar-09 20:30N 22°19' E 120°11'611.1
2019-Mar-09 19:56N 22°13' E 120°10'  
Track history (hours):
 
Tides and Currents Weather Stations Pressure Air Temp Water Temp Dewpoint Dewpoint Depression Visibility Wind Speed Wind Dir Waves Ship Positions

Albatros

Last reported at 2019-Mar-18 09:36 UTC. Time now 2019-Mar-22 12:04 UTC.
Position N 35°05' E 129°07'.

Length 205.5 m; beam 25.2 m; draft 7.6 m.

Type: Passenger vessel. MMSI: 308784000.

Date/timePositionNaut miles runAvg speedWind from/ knotsBaromVisibWave heightAir tempDewpointWater temp
2019-Mar-18 09:36N 35°05' E 129°07'112.5
2019-Mar-18 09:30N 35°05' E 129°05'2 4.4
2019-Mar-18 08:59N 35°07' E 129°03'0 0.0
2019-Mar-18 08:29N 35°07' E 129°03'0 0.0
2019-Mar-18 07:59N 35°07' E 129°03'0 0.0
2019-Mar-18 07:30N 35°07' E 129°03'0 0.0
2019-Mar-18 06:59N 35°07' E 129°03'0 0.0
2019-Mar-18 06:30N 35°07' E 129°03'0 0.0
2019-Mar-18 05:59N 35°07' E 129°03'0 0.0
2019-Mar-18 05:30N 35°07' E 129°03'0 0.0
2019-Mar-18 05:00N 35°07' E 129°03'0 0.0
2019-Mar-18 04:26N 35°07' E 129°03'0 0.0
2019-Mar-18 04:00N 35°07' E 129°03'0 0.0
2019-Mar-18 03:30N 35°07' E 129°03'0 0.0
2019-Mar-18 03:00N 35°07' E 129°03'0 0.0
2019-Mar-18 02:27N 35°07' E 129°03'0 0.0
2019-Mar-18 02:00N 35°07' E 129°03'0 0.0
2019-Mar-18 01:30N 35°07' E 129°03'0 0.0
2019-Mar-18 01:00N 35°07' E 129°03'0 0.0
2019-Mar-18 00:27N 35°07' E 129°03'0 0.0
2019-Mar-18 00:00N 35°07' E 129°03'0 0.0
2019-Mar-17 23:30N 35°07' E 129°03'0 0.0
2019-Mar-17 23:00N 35°07' E 129°03'0 0.0
2019-Mar-17 22:30N 35°07' E 129°03'0 0.3
2019-Mar-17 22:00N 35°07' E 129°03'5 8.9
2019-Mar-17 21:26N 35°04' E 129°09'34410.7
2019-Mar-16 13:13N 31°44' E 123°33'1217.2
2019-Mar-16 12:32N 31°37' E 123°22'117.4
2019-Mar-16 12:30N 31°36' E 123°21'3316.0
2019-Mar-16 10:27N 31°14' E 122°53'1616.2
2019-Mar-16 09:27N 31°06' E 122°37'715.4
2019-Mar-16 08:59N 31°06' E 122°28'611.4
2019-Mar-16 08:30N 31°06' E 122°22'713.9
2019-Mar-16 08:00N 31°08' E 122°14'714.5
2019-Mar-16 07:30N 31°13' E 122°08'714.3
2019-Mar-16 07:00N 31°15' E 121°60'814.5
2019-Mar-16 06:27N 31°17' E 121°51'5 0.1
2019-Mar-14 21:00N 31°18' E 121°46'710.8
2019-Mar-14 20:23N 31°16' E 121°53'411.2
2019-Mar-14 20:00N 31°15' E 121°58'812.6
2019-Mar-14 19:21N 31°13' E 122°07'512.9
2019-Mar-14 18:56N 31°10' E 122°12'612.5
2019-Mar-14 18:27N 31°06' E 122°18'1010.2
2019-Mar-14 17:31N 31°07' E 122°29'0 9.3
2019-Mar-14 17:30N 31°07' E 122°29'  
2019-Mar-12 08:53N 25°19' E 122°26'615.8
2019-Mar-12 08:29N 25°18' E 122°19'816.2
2019-Mar-12 07:59N 25°16' E 122°10'916.6
2019-Mar-12 07:27N 25°14' E 122°01'816.1
2019-Mar-12 06:58N 25°13' E 121°52'714.0
2019-Mar-12 06:29N 25°11' E 121°45'3 2.4
2019-Mar-12 05:23N 25°08' E 121°45'0 0.0
2019-Mar-12 04:53N 25°08' E 121°45'0 0.0
2019-Mar-12 04:29N 25°08' E 121°45'0 0.0
2019-Mar-12 03:29N 25°08' E 121°45'0 0.0
2019-Mar-12 02:59N 25°08' E 121°45'0 0.0
2019-Mar-12 02:20N 25°08' E 121°45'0 0.0
2019-Mar-12 01:32N 25°08' E 121°45'0 0.0
2019-Mar-12 01:02N 25°08' E 121°45'0 0.0
2019-Mar-12 00:50N 25°08' E 121°45'0 0.0
2019-Mar-12 00:26N 25°08' E 121°45'0 0.0
2019-Mar-11 23:53N 25°08' E 121°45'0 0.0
2019-Mar-11 23:29N 25°08' E 121°45'0 0.0
2019-Mar-11 22:41N 25°08' E 121°45'0 0.0
2019-Mar-11 22:29N 25°08' E 121°45'0 0.0
2019-Mar-11 21:47N 25°08' E 121°45'0 0.0
2019-Mar-11 21:23N 25°08' E 121°45'0 0.0
2019-Mar-11 20:53N 25°08' E 121°45'0 0.0
2019-Mar-11 20:11N 25°08' E 121°45'0 0.0
2019-Mar-11 19:53N 25°08' E 121°45'0 0.0
2019-Mar-11 19:23N 25°08' E 121°45'0 0.0
2019-Mar-11 18:53N 25°08' E 121°45'0 0.0
2019-Mar-11 18:29N 25°08' E 121°45'0 0.0
2019-Mar-11 17:47N 25°08' E 121°45'0 0.0
2019-Mar-11 17:29N 25°08' E 121°45'0 0.0
2019-Mar-11 16:41N 25°08' E 121°45'0 0.0
2019-Mar-11 16:26N 25°08' E 121°45'0 0.0
2019-Mar-11 15:50N 25°08' E 121°45'0 0.0
2019-Mar-11 15:26N 25°08' E 121°45'0 0.0
2019-Mar-11 14:56N 25°08' E 121°45'0 0.0
2019-Mar-11 14:29N 25°08' E 121°45'0 0.0
2019-Mar-11 13:47N 25°08' E 121°45'0 0.0
2019-Mar-11 13:29N 25°08' E 121°45'0 0.0
2019-Mar-11 12:41N 25°08' E 121°45'0 0.0
2019-Mar-11 12:08N 25°08' E 121°45'0 0.0
2019-Mar-11 11:44N 25°08' E 121°45'0 0.0
2019-Mar-11 11:20N 25°08' E 121°45'0 0.0
2019-Mar-11 10:56N 25°08' E 121°45'0 0.0
2019-Mar-11 10:26N 25°08' E 121°45'0 0.0
2019-Mar-11 09:53N 25°08' E 121°45'0 0.0
2019-Mar-11 09:29N 25°08' E 121°45'0 0.0
2019-Mar-11 08:59N 25°08' E 121°45'0 0.0
2019-Mar-11 08:08N 25°08' E 121°45'0 0.0
2019-Mar-11 07:56N 25°08' E 121°45'0 0.0
2019-Mar-11 07:20N 25°08' E 121°45'0 0.0
2019-Mar-11 06:47N 25°08' E 121°45'0 0.0
2019-Mar-11 06:17N 25°08' E 121°45'0 0.0
2019-Mar-11 05:59N 25°08' E 121°45'0 0.0
2019-Mar-11 05:26N 25°08' E 121°45'0 0.0
2019-Mar-11 04:56N 25°08' E 121°45'0 0.0
2019-Mar-11 04:26N 25°08' E 121°45'0 0.0
2019-Mar-11 03:50N 25°08' E 121°45'0 0.0
2019-Mar-11 03:26N 25°08' E 121°45'0 0.0
2019-Mar-11 02:59N 25°08' E 121°45'0 0.0
2019-Mar-11 01:56N 25°08' E 121°45'0 0.0
2019-Mar-11 01:23N 25°08' E 121°45'0 0.0
2019-Mar-11 00:59N 25°08' E 121°45'0 0.0
2019-Mar-11 00:23N 25°08' E 121°45'0 0.0
2019-Mar-10 23:59N 25°08' E 121°45'0 0.7
2019-Mar-10 23:29N 25°08' E 121°45'3 5.3
2019-Mar-10 22:59N 25°11' E 121°45'5 8.9
2019-Mar-10 22:28N 25°15' E 121°43'510.1
2019-Mar-10 21:58N 25°20' E 121°40'510.0
2019-Mar-10 21:26N 25°24' E 121°37'510.2
2019-Mar-10 20:59N 25°27' E 121°33'1019.3
2019-Mar-10 20:28N 25°30' E 121°23'1019.1
2019-Mar-10 19:55N 25°28' E 121°12'919.4
2019-Mar-10 19:28N 25°23' E 121°03'16016.7
2019-Mar-10 09:54N 22°54' E 120°01'1015.2
2019-Mar-10 09:15N 22°46' E 120°07'414.6
2019-Mar-10 09:01N 22°43' E 120°09'714.3
2019-Mar-10 08:30N 22°38' E 120°14'3 4.8
2019-Mar-10 07:58N 22°37' E 120°17'0 0.0
2019-Mar-10 07:28N 22°37' E 120°17'0 0.0
2019-Mar-10 06:58N 22°37' E 120°17'0 0.0
2019-Mar-10 06:28N 22°37' E 120°17'0 0.0
2019-Mar-10 05:58N 22°37' E 120°17'0 0.0
2019-Mar-10 05:28N 22°37' E 120°17'0 0.0
2019-Mar-10 04:58N 22°37' E 120°17'0 0.0
2019-Mar-10 04:28N 22°37' E 120°17'0 0.0
2019-Mar-10 03:58N 22°37' E 120°17'0 0.0
2019-Mar-10 03:25N 22°37' E 120°17'0 0.0
2019-Mar-10 02:52N 22°37' E 120°17'0 0.0
2019-Mar-10 02:28N 22°37' E 120°17'0 0.0
2019-Mar-10 01:58N 22°37' E 120°17'0 0.0
2019-Mar-10 01:28N 22°37' E 120°17'0 0.0
2019-Mar-10 00:58N 22°37' E 120°17'0 0.0
2019-Mar-10 00:28N 22°37' E 120°17'0 0.0
2019-Mar-09 23:58N 22°37' E 120°17'0 0.0
2019-Mar-09 23:22N 22°37' E 120°17'0 0.0
2019-Mar-09 23:00N 22°37' E 120°17'1 1.5
2019-Mar-09 22:30N 22°37' E 120°16'4 8.0
2019-Mar-09 22:00N 22°37' E 120°12'611.8
2019-Mar-09 21:30N 22°31' E 120°13'611.7
2019-Mar-09 21:00N 22°25' E 120°12'612.0
2019-Mar-09 20:30N 22°19' E 120°11'611.1
2019-Mar-09 19:56N 22°13' E 120°10'  

Dump ship's entire track history